createdAt,value
2018-09-15T00:00:06.897Z,0
2018-09-15T00:01:08.463Z,0
2018-09-15T00:02:10.045Z,0
2018-09-15T00:03:11.943Z,0
2018-09-15T00:04:13.517Z,0
2018-09-15T00:05:15.045Z,0
2018-09-15T00:06:16.747Z,0
2018-09-15T00:07:18.313Z,0
2018-09-15T00:08:19.880Z,0
2018-09-15T00:09:21.427Z,0
2018-09-15T00:10:22.920Z,0
2018-09-15T00:11:24.354Z,0
2018-09-15T00:12:25.934Z,0
2018-09-15T00:13:27.444Z,0
2018-09-15T00:14:29.074Z,0
2018-09-15T00:15:30.680Z,0
2018-09-15T00:16:32.303Z,0
2018-09-15T00:17:34.079Z,0
2018-09-15T00:18:35.516Z,0
2018-09-15T00:19:37.029Z,0
2018-09-15T00:20:38.496Z,0
2018-09-15T00:21:40.155Z,0
2018-09-15T00:22:41.599Z,0
2018-09-15T00:23:43.354Z,0
2018-09-15T00:24:45.032Z,0
2018-09-15T00:25:46.808Z,0
2018-09-15T00:26:48.715Z,0
2018-09-15T00:27:50.685Z,0
2018-09-15T00:28:52.422Z,0
2018-09-15T00:29:54.294Z,0
2018-09-15T00:30:55.898Z,0
2018-09-15T00:31:57.824Z,0
2018-09-15T00:32:59.505Z,0
2018-09-15T00:34:01.248Z,0
2018-09-15T00:35:02.846Z,0
2018-09-15T00:36:04.536Z,0
2018-09-15T00:37:06.115Z,0
2018-09-15T00:38:07.884Z,0
2018-09-15T00:39:09.524Z,0
2018-09-15T00:40:11.271Z,0
2018-09-15T00:41:12.881Z,0
2018-09-15T00:42:14.644Z,0
2018-09-15T00:43:16.179Z,0
2018-09-15T00:44:17.905Z,0
2018-09-15T00:45:19.465Z,0
2018-09-15T00:46:21.219Z,0
2018-09-15T00:47:22.644Z,0
2018-09-15T00:48:24.312Z,0
2018-09-15T00:49:25.843Z,0
2018-09-15T00:50:27.440Z,0
2018-09-15T00:51:29.016Z,0
2018-09-15T00:52:30.741Z,0
2018-09-15T00:53:32.311Z,0
2018-09-15T00:54:34.190Z,0
2018-09-15T00:55:35.787Z,0
2018-09-15T00:56:37.433Z,0
2018-09-15T00:57:39.036Z,0
2018-09-15T00:58:40.724Z,0
2018-09-15T00:59:42.323Z,0
2018-09-15T01:00:44.056Z,0
2018-09-15T01:01:45.694Z,0
2018-09-15T01:02:47.373Z,0
2018-09-15T01:03:49.240Z,0
2018-09-15T01:04:50.851Z,0
2018-09-15T01:05:52.327Z,0
2018-09-15T01:06:54.109Z,0
2018-09-15T01:07:55.680Z,0
2018-09-15T01:08:57.266Z,0
2018-09-15T01:09:59.025Z,0
2018-09-15T01:11:00.616Z,0
2018-09-15T01:12:02.236Z,0
2018-09-15T01:13:03.990Z,0
2018-09-15T01:14:05.678Z,0
2018-09-15T01:15:07.233Z,0
2018-09-15T01:16:08.879Z,0
2018-09-15T01:17:10.775Z,0
2018-09-15T01:18:12.621Z,0
2018-09-15T01:19:14.189Z,0
2018-09-15T01:20:15.850Z,0
2018-09-15T01:21:17.456Z,0
2018-09-15T01:22:19.086Z,0
2018-09-15T01:23:20.856Z,0
2018-09-15T01:24:22.439Z,0
2018-09-15T01:25:24.028Z,0
2018-09-15T01:26:25.851Z,0
2018-09-15T01:27:27.664Z,0
2018-09-15T01:28:29.212Z,0
2018-09-15T01:29:30.866Z,0
2018-09-15T01:30:32.461Z,0
2018-09-15T01:31:33.990Z,0
2018-09-15T01:32:35.651Z,0
2018-09-15T01:33:37.186Z,0
2018-09-15T01:34:38.746Z,0
2018-09-15T01:35:40.466Z,0
2018-09-15T01:36:41.941Z,0
2018-09-15T01:37:43.607Z,0
2018-09-15T01:38:45.084Z,0
2018-09-15T01:39:46.863Z,0
2018-09-15T01:40:48.553Z,0
2018-09-15T01:41:50.166Z,0
2018-09-15T01:42:51.912Z,0
2018-09-15T01:43:53.331Z,0
2018-09-15T01:44:54.881Z,0
2018-09-15T01:45:56.511Z,0
2018-09-15T01:46:57.952Z,0
2018-09-15T01:47:59.717Z,0
2018-09-15T01:49:01.508Z,0
2018-09-15T01:50:03.050Z,0
2018-09-15T01:51:04.519Z,0
2018-09-15T01:52:05.998Z,0
2018-09-15T01:53:07.600Z,0
2018-09-15T01:54:09.040Z,0
2018-09-15T01:55:10.713Z,0
2018-09-15T01:56:12.457Z,0
2018-09-15T01:57:14.111Z,0
2018-09-15T01:58:15.747Z,0
2018-09-15T01:59:17.328Z,0
2018-09-15T02:00:19.029Z,0
2018-09-15T02:01:20.631Z,0
2018-09-15T02:02:22.214Z,0
2018-09-15T02:03:23.939Z,0
2018-09-15T02:04:25.477Z,0
2018-09-15T02:05:27.054Z,0
2018-09-15T02:06:28.699Z,0
2018-09-15T02:07:30.313Z,0
2018-09-15T02:08:31.974Z,0
2018-09-15T02:09:33.587Z,0
2018-09-15T02:10:35.373Z,0
2018-09-15T02:11:36.888Z,0
2018-09-15T02:12:38.588Z,0
2018-09-15T02:13:40.228Z,0
2018-09-15T02:14:41.891Z,0
2018-09-15T02:15:43.486Z,0
2018-09-15T02:16:45.149Z,0
2018-09-15T02:17:46.853Z,0
2018-09-15T02:18:48.673Z,0
2018-09-15T02:19:50.320Z,0
2018-09-15T02:20:52.060Z,0
2018-09-15T02:21:53.872Z,0
2018-09-15T02:22:55.786Z,0
2018-09-15T02:23:57.326Z,0
2018-09-15T02:24:59.218Z,0
2018-09-15T02:26:00.802Z,0
2018-09-15T02:27:02.622Z,0
2018-09-15T02:28:04.289Z,0
2018-09-15T02:29:06.176Z,0
2018-09-15T02:30:07.742Z,0
2018-09-15T02:31:09.432Z,0
2018-09-15T02:32:10.977Z,0
2018-09-15T02:33:12.677Z,0
2018-09-15T02:34:14.267Z,0
2018-09-15T02:35:15.983Z,0
2018-09-15T02:36:17.550Z,0
2018-09-15T02:37:19.084Z,0
2018-09-15T02:38:20.703Z,0
2018-09-15T02:39:22.292Z,0
2018-09-15T02:40:23.920Z,0
2018-09-15T02:41:25.689Z,0
2018-09-15T02:42:27.329Z,0
2018-09-15T02:43:28.876Z,0
2018-09-15T02:44:30.593Z,0
2018-09-15T02:45:32.235Z,0
2018-09-15T02:46:33.795Z,0
2018-09-15T02:47:35.562Z,0
2018-09-15T02:48:37.137Z,0
2018-09-15T02:49:38.769Z,0
2018-09-15T02:50:40.470Z,0
2018-09-15T02:51:42.080Z,0
2018-09-15T02:52:43.695Z,0
2018-09-15T02:53:45.366Z,0
2018-09-15T02:54:46.983Z,0
2018-09-15T02:55:48.576Z,0
2018-09-15T02:56:51.344Z,0
2018-09-15T02:57:52.888Z,0
2018-09-15T02:58:54.414Z,0
2018-09-15T02:59:56.097Z,0
2018-09-15T03:00:57.663Z,0
2018-09-15T03:01:59.296Z,0
2018-09-15T03:03:01.068Z,0
2018-09-15T03:04:02.667Z,0
2018-09-15T03:05:04.322Z,0
2018-09-15T03:06:05.960Z,0
2018-09-15T03:07:07.622Z,0
2018-09-15T03:08:09.223Z,0
2018-09-15T03:09:10.936Z,0
2018-09-15T03:10:12.553Z,0
2018-09-15T03:11:14.178Z,0
2018-09-15T03:12:15.750Z,0
2018-09-15T03:13:17.466Z,0
2018-09-15T03:14:19.198Z,0
2018-09-15T03:15:20.784Z,0
2018-09-15T03:16:22.345Z,0
2018-09-15T03:17:24.062Z,0
2018-09-15T03:18:25.706Z,0
2018-09-15T03:19:27.281Z,0
2018-09-15T03:20:29.095Z,0
2018-09-15T03:21:30.735Z,0
2018-09-15T03:22:32.392Z,0
2018-09-15T03:23:34.190Z,0
2018-09-15T03:24:35.803Z,0
2018-09-15T03:25:37.499Z,0
2018-09-15T03:26:39.311Z,0
2018-09-15T03:27:41.002Z,0
2018-09-15T03:28:42.832Z,0
2018-09-15T03:29:44.391Z,0
2018-09-15T03:30:46.175Z,0
2018-09-15T03:31:47.811Z,0
2018-09-15T03:32:49.377Z,0
2018-09-15T03:33:51.012Z,0
2018-09-15T03:34:52.567Z,0
2018-09-15T03:35:54.182Z,0
2018-09-15T03:36:55.906Z,0
2018-09-15T03:37:57.553Z,0
2018-09-15T03:38:59.086Z,0
2018-09-15T03:40:00.864Z,0
2018-09-15T03:41:02.496Z,0
2018-09-15T03:42:04.092Z,0
2018-09-15T03:43:05.821Z,0
2018-09-15T03:44:07.414Z,0
2018-09-15T03:45:09.002Z,0
2018-09-15T03:46:10.762Z,0
2018-09-15T03:47:12.396Z,0
2018-09-15T03:48:14.075Z,0
2018-09-15T03:49:15.904Z,0
2018-09-15T03:50:17.443Z,0
2018-09-15T03:51:19.116Z,0
2018-09-15T03:52:20.771Z,0
2018-09-15T03:53:22.349Z,0
2018-09-15T03:54:24.148Z,0
2018-09-15T03:55:25.680Z,0
2018-09-15T03:56:27.411Z,0
2018-09-15T03:57:29.018Z,0
2018-09-15T03:58:30.669Z,0
2018-09-15T03:59:32.393Z,0
2018-09-15T04:00:34.028Z,0
2018-09-15T04:01:35.671Z,0
2018-09-15T04:02:37.476Z,0
2018-09-15T04:03:39.117Z,0
2018-09-15T04:04:40.726Z,0
2018-09-15T04:05:42.450Z,0
2018-09-15T04:06:44.019Z,0
2018-09-15T04:07:45.599Z,0
2018-09-15T04:08:47.357Z,0
2018-09-15T04:09:48.951Z,0
2018-09-15T04:10:50.501Z,0
2018-09-15T04:11:52.289Z,0
2018-09-15T04:12:53.902Z,0
2018-09-15T04:13:55.510Z,0
2018-09-15T04:14:57.223Z,0
2018-09-15T04:15:58.827Z,0
2018-09-15T04:17:00.504Z,0
2018-09-15T04:18:02.058Z,0
2018-09-15T04:19:03.649Z,0
2018-09-15T04:20:05.276Z,0
2018-09-15T04:21:06.849Z,0
2018-09-15T04:22:08.494Z,0
2018-09-15T04:23:11.170Z,0
2018-09-15T04:24:12.815Z,0
2018-09-15T04:25:14.404Z,0
2018-09-15T04:26:16.180Z,0
2018-09-15T04:27:17.801Z,0
2018-09-15T04:28:19.494Z,0
2018-09-15T04:29:21.172Z,0
2018-09-15T04:30:22.846Z,0
2018-09-15T04:31:24.515Z,0
2018-09-15T04:32:26.269Z,0
2018-09-15T04:33:27.929Z,0
2018-09-15T04:34:29.622Z,0
2018-09-15T04:35:31.396Z,0
2018-09-15T04:36:33.043Z,0
2018-09-15T04:37:34.683Z,0
2018-09-15T04:38:36.546Z,0
2018-09-15T04:39:38.218Z,0
2018-09-15T04:40:40.034Z,0
2018-09-15T04:41:41.726Z,0
2018-09-15T04:42:43.550Z,0
2018-09-15T04:43:45.169Z,0
2018-09-15T04:44:46.990Z,0
2018-09-15T04:45:48.675Z,0
2018-09-15T04:46:50.553Z,0
2018-09-15T04:47:52.155Z,0
2018-09-15T04:48:54.028Z,0
2018-09-15T04:49:55.822Z,0
2018-09-15T04:50:57.610Z,0
2018-09-15T04:51:59.231Z,0
2018-09-15T04:53:00.980Z,0
2018-09-15T04:54:02.566Z,0
2018-09-15T04:55:04.380Z,0
2018-09-15T04:56:05.981Z,0
2018-09-15T04:57:07.742Z,0
2018-09-15T04:58:09.319Z,0
2018-09-15T04:59:11.111Z,0
2018-09-15T05:00:12.838Z,0
2018-09-15T05:01:14.579Z,0
2018-09-15T05:02:16.188Z,0
2018-09-15T05:03:17.850Z,0
2018-09-15T05:04:19.453Z,0
2018-09-15T05:05:21.177Z,0
2018-09-15T05:06:22.797Z,0
2018-09-15T05:07:24.406Z,0
2018-09-15T05:08:26.017Z,0
2018-09-15T05:09:27.656Z,0
2018-09-15T05:10:29.433Z,0
2018-09-15T05:11:31.076Z,0
2018-09-15T05:12:32.984Z,0
2018-09-15T05:13:34.599Z,5
2018-09-15T05:14:37.455Z,5
2018-09-15T05:15:38.951Z,5
2018-09-15T05:16:40.658Z,5
2018-09-15T05:17:42.650Z,5
2018-09-15T05:18:44.209Z,5
2018-09-15T05:19:45.625Z,5
2018-09-15T05:20:47.112Z,5
2018-09-15T05:21:48.688Z,5
2018-09-15T05:22:50.125Z,5
2018-09-15T05:23:51.599Z,5
2018-09-15T05:24:53.254Z,5
2018-09-15T05:25:54.734Z,5
2018-09-15T05:26:56.338Z,5
2018-09-15T05:27:57.797Z,10
2018-09-15T05:28:59.418Z,10
2018-09-15T05:30:00.934Z,10
2018-09-15T05:31:02.549Z,10
2018-09-15T05:32:04.088Z,10
2018-09-15T05:33:05.667Z,10
2018-09-15T05:34:07.198Z,10
2018-09-15T05:35:08.909Z,10
2018-09-15T05:36:10.473Z,10
2018-09-15T05:37:12.132Z,10
2018-09-15T05:38:13.691Z,10
2018-09-15T05:39:15.357Z,10
2018-09-15T05:40:17.051Z,10
2018-09-15T05:41:18.694Z,10
2018-09-15T05:42:20.349Z,10
2018-09-15T05:43:22.009Z,15
2018-09-15T05:44:23.930Z,15
2018-09-15T05:45:25.796Z,15
2018-09-15T05:46:27.304Z,15
2018-09-15T05:47:29.043Z,15
2018-09-15T05:48:30.670Z,15
2018-09-15T05:49:32.136Z,15
2018-09-15T05:50:33.852Z,15
2018-09-15T05:51:35.438Z,15
2018-09-15T05:52:36.920Z,15
2018-09-15T05:53:38.566Z,20
2018-09-15T05:54:40.154Z,20
2018-09-15T05:55:41.839Z,20
2018-09-15T05:56:43.700Z,20
2018-09-15T05:57:45.336Z,20
2018-09-15T05:58:47.019Z,20
2018-09-15T05:59:48.689Z,20
2018-09-15T06:00:50.391Z,20
2018-09-15T06:01:52.096Z,20
2018-09-15T06:02:53.731Z,20
2018-09-15T06:03:55.745Z,20
2018-09-15T06:04:57.379Z,20
2018-09-15T06:05:58.915Z,20
2018-09-15T06:07:00.737Z,25
2018-09-15T06:08:02.330Z,25
2018-09-15T06:09:03.904Z,25
2018-09-15T06:10:05.524Z,25
2018-09-15T06:11:07.051Z,25
2018-09-15T06:12:08.592Z,25
2018-09-15T06:13:10.460Z,25
2018-09-15T06:14:12.358Z,25
2018-09-15T06:15:14.100Z,25
2018-09-15T06:16:16.228Z,25
2018-09-15T06:17:17.860Z,25
2018-09-15T06:18:19.693Z,30
2018-09-15T06:19:21.462Z,30
2018-09-15T06:20:23.060Z,30
2018-09-15T06:21:24.628Z,30
2018-09-15T06:22:26.201Z,35
2018-09-15T06:23:27.795Z,40
2018-09-15T06:24:29.502Z,40
2018-09-15T06:25:31.103Z,45
2018-09-15T06:26:32.839Z,55
2018-09-15T06:27:42.198Z,65
2018-09-15T06:28:53.626Z,80
2018-09-15T06:29:55.265Z,85
2018-09-15T06:30:57.157Z,85
2018-09-15T06:31:58.806Z,90
2018-09-15T06:33:00.411Z,100
2018-09-15T06:34:02.008Z,100
2018-09-15T06:35:03.715Z,105
2018-09-15T06:36:05.522Z,105
2018-09-15T06:37:07.426Z,105
2018-09-15T06:38:09.008Z,105
2018-09-15T06:39:10.834Z,105
2018-09-15T06:40:12.484Z,105
2018-09-15T06:41:14.121Z,105
2018-09-15T06:42:15.923Z,105
2018-09-15T06:43:17.712Z,110
2018-09-15T06:44:19.400Z,105
2018-09-15T06:45:21.348Z,110
2018-09-15T06:46:22.869Z,110
2018-09-15T06:47:24.675Z,110
2018-09-15T06:48:26.274Z,110
2018-09-15T06:49:28.050Z,110
2018-09-15T06:50:29.779Z,110
2018-09-15T06:51:31.690Z,105
2018-09-15T06:52:33.179Z,100
2018-09-15T06:53:35.276Z,95
2018-09-15T06:54:36.966Z,100
2018-09-15T06:55:38.847Z,100
2018-09-15T06:56:40.831Z,100
2018-09-15T06:57:42.753Z,105
2018-09-15T06:58:44.359Z,100
2018-09-15T06:59:45.889Z,100
2018-09-15T07:00:47.804Z,110
2018-09-15T07:01:49.487Z,115
2018-09-15T07:02:51.080Z,110
2018-09-15T07:03:52.999Z,110
2018-09-15T07:04:54.652Z,105
2018-09-15T07:05:56.298Z,100
2018-09-15T07:06:58.148Z,100
2018-09-15T07:07:59.714Z,95
2018-09-15T07:09:01.577Z,100
2018-09-15T07:10:03.307Z,100
2018-09-15T07:11:04.995Z,100
2018-09-15T07:12:06.726Z,95
2018-09-15T07:13:08.422Z,95
2018-09-15T07:14:10.033Z,80
2018-09-15T07:15:12.003Z,75
2018-09-15T07:16:13.602Z,75
2018-09-15T07:17:15.394Z,70
2018-09-15T07:18:17.046Z,65
2018-09-15T07:19:18.836Z,65
2018-09-15T07:20:20.561Z,60
2018-09-15T07:21:22.412Z,60
2018-09-15T07:22:24.017Z,65
2018-09-15T07:23:25.902Z,60
2018-09-15T07:24:27.479Z,65
2018-09-15T07:25:29.004Z,65
2018-09-15T07:26:30.780Z,65
2018-09-15T07:27:32.417Z,65
2018-09-15T07:28:34.120Z,70
2018-09-15T07:29:35.779Z,70
2018-09-15T07:30:37.228Z,70
2018-09-15T07:31:38.681Z,70
2018-09-15T07:32:40.327Z,75
2018-09-15T07:33:41.793Z,75
2018-09-15T07:34:43.345Z,75
2018-09-15T07:35:45.025Z,75
2018-09-15T07:36:46.478Z,75
2018-09-15T07:37:48.091Z,75
2018-09-15T07:38:49.576Z,70
2018-09-15T07:39:51.020Z,65
2018-09-15T07:40:52.450Z,65
2018-09-15T07:41:54.109Z,65
2018-09-15T07:42:55.558Z,65
2018-09-15T07:43:57.091Z,65
2018-09-15T07:44:58.869Z,65
2018-09-15T07:46:00.485Z,65
2018-09-15T07:47:02.148Z,65
2018-09-15T07:48:03.576Z,70
2018-09-15T07:49:05.175Z,75
2018-09-15T07:50:06.596Z,125
2018-09-15T07:51:08.285Z,185
2018-09-15T07:52:09.726Z,130
2018-09-15T07:53:11.346Z,90
2018-09-15T07:54:12.797Z,90
2018-09-15T07:55:14.418Z,65
2018-09-15T07:56:15.886Z,55
2018-09-15T07:57:17.641Z,60
2018-09-15T07:58:18.945Z,70
2018-09-15T07:59:20.633Z,70
2018-09-15T08:00:22.042Z,70
2018-09-15T08:01:23.478Z,70
2018-09-15T08:02:25.123Z,70
2018-09-15T08:03:26.557Z,75
2018-09-15T08:04:28.041Z,75
2018-09-15T08:05:29.661Z,80
2018-09-15T08:06:31.081Z,100
2018-09-15T08:07:32.722Z,120
2018-09-15T08:08:34.149Z,120
2018-09-15T08:09:36.839Z,110
2018-09-15T08:10:38.267Z,105
2018-09-15T08:11:39.710Z,105
2018-09-15T08:12:41.374Z,130
2018-09-15T08:13:42.813Z,115
2018-09-15T08:14:44.233Z,95
2018-09-15T08:15:45.950Z,110
2018-09-15T08:16:47.473Z,110
2018-09-15T08:17:49.185Z,110
2018-09-15T08:18:50.662Z,115
2018-09-15T08:19:52.272Z,115
2018-09-15T08:20:53.788Z,125
2018-09-15T08:21:55.150Z,145
2018-09-15T08:22:56.801Z,155
2018-09-15T08:23:58.241Z,145
2018-09-15T08:24:59.701Z,140
2018-09-15T08:26:01.321Z,135
2018-09-15T08:27:02.764Z,145
2018-09-15T08:28:04.191Z,155
2018-09-15T08:29:05.846Z,160
2018-09-15T08:30:07.275Z,175
2018-09-15T08:31:08.690Z,235
2018-09-15T08:32:10.458Z,225
2018-09-15T08:33:11.836Z,245
2018-09-15T08:34:13.244Z,230
2018-09-15T08:35:14.895Z,225
2018-09-15T08:36:16.327Z,225
2018-09-15T08:37:17.749Z,220
2018-09-15T08:38:19.438Z,210
2018-09-15T08:39:20.835Z,195
2018-09-15T08:40:22.723Z,175
2018-09-15T08:41:24.276Z,180
2018-09-15T08:42:25.803Z,175
2018-09-15T08:43:27.251Z,175
2018-09-15T08:44:28.881Z,170
2018-09-15T08:45:30.371Z,135
2018-09-15T08:46:32.169Z,125
2018-09-15T08:47:33.832Z,125
2018-09-15T08:48:35.378Z,85
2018-09-15T08:49:36.852Z,90
2018-09-15T08:50:38.555Z,75
2018-09-15T08:51:39.979Z,80
2018-09-15T08:52:41.395Z,70
2018-09-15T08:53:42.877Z,50
2018-09-15T08:54:44.331Z,35
2018-09-15T08:55:45.976Z,40
2018-09-15T08:56:47.391Z,65
2018-09-15T08:57:48.796Z,80
2018-09-15T08:58:50.474Z,60
2018-09-15T08:59:51.880Z,60
2018-09-15T09:00:53.329Z,70
2018-09-15T09:01:55.010Z,90
2018-09-15T09:02:56.440Z,95
2018-09-15T09:03:57.845Z,105
2018-09-15T09:04:59.538Z,95
2018-09-15T09:06:00.960Z,105
2018-09-15T09:07:02.359Z,125
2018-09-15T09:08:04.056Z,165
2018-09-15T09:09:05.473Z,190
2018-09-15T09:10:06.941Z,195
2018-09-15T09:11:08.585Z,185
2018-09-15T09:12:09.993Z,150
2018-09-15T09:13:11.665Z,125
2018-09-15T09:14:13.083Z,120
2018-09-15T09:15:15.124Z,115
2018-09-15T09:16:16.549Z,110
2018-09-15T09:17:18.254Z,130
2018-09-15T09:18:19.663Z,170
2018-09-15T09:19:21.337Z,170
2018-09-15T09:20:22.744Z,205
2018-09-15T09:21:24.420Z,185
2018-09-15T09:22:25.841Z,195
2018-09-15T09:23:27.255Z,220
2018-09-15T09:24:28.948Z,295
2018-09-15T09:25:30.364Z,300
2018-09-15T09:26:31.843Z,280
2018-09-15T09:27:33.507Z,240
2018-09-15T09:28:34.957Z,210
2018-09-15T09:29:36.567Z,275
2018-09-15T09:30:37.983Z,270
2018-09-15T09:31:39.644Z,285
2018-09-15T09:32:41.068Z,235
2018-09-15T09:33:42.500Z,330
2018-09-15T09:34:44.174Z,220
2018-09-15T09:35:45.610Z,235
2018-09-15T09:36:47.045Z,225
2018-09-15T09:37:48.711Z,270
2018-09-15T09:38:50.122Z,165
2018-09-15T09:39:51.922Z,175
2018-09-15T09:40:53.151Z,185
2018-09-15T09:41:54.895Z,195
2018-09-15T09:42:56.319Z,225
2018-09-15T09:43:57.974Z,255
2018-09-15T09:44:59.460Z,275
2018-09-15T09:46:01.042Z,260
2018-09-15T09:47:02.470Z,235
2018-09-15T09:48:04.168Z,250
2018-09-15T09:49:05.584Z,190
2018-09-15T09:50:07.221Z,195
2018-09-15T09:51:08.669Z,210
2018-09-15T09:52:10.523Z,215
2018-09-15T09:53:11.958Z,155
2018-09-15T09:54:13.597Z,175
2018-09-15T09:55:15.042Z,140
2018-09-15T09:56:16.694Z,140
2018-09-15T09:57:18.132Z,165
2018-09-15T09:58:19.767Z,165
2018-09-15T09:59:21.182Z,220
2018-09-15T10:00:22.848Z,235
2018-09-15T10:01:24.355Z,245
2018-09-15T10:02:25.673Z,185
2018-09-15T10:03:27.360Z,155
2018-09-15T10:04:28.780Z,120
2018-09-15T10:05:30.186Z,120
2018-09-15T10:06:31.898Z,145
2018-09-15T10:07:33.303Z,235
2018-09-15T10:08:34.726Z,210
2018-09-15T10:09:36.525Z,315
2018-09-15T10:10:37.943Z,280
2018-09-15T10:11:39.349Z,215
2018-09-15T10:12:40.939Z,200
2018-09-15T10:13:42.359Z,215
2018-09-15T10:14:43.777Z,235
2018-09-15T10:15:45.497Z,215
2018-09-15T10:16:46.891Z,225
2018-09-15T10:17:48.301Z,240
2018-09-15T10:18:50.007Z,165
2018-09-15T10:19:51.408Z,235
2018-09-15T10:20:53.085Z,220
2018-09-15T10:21:54.491Z,145
2018-09-15T10:22:56.172Z,160
2018-09-15T10:23:57.584Z,120
2018-09-15T10:25:39.014Z,235
2018-09-15T10:26:40.432Z,195
2018-09-15T10:27:41.834Z,215
2018-09-15T10:28:43.517Z,245
2018-09-15T10:29:44.918Z,255
2018-09-15T10:30:46.327Z,205
2018-09-15T10:31:48.044Z,165
2018-09-15T10:32:49.453Z,155
2018-09-15T10:33:50.856Z,185
2018-09-15T10:34:52.567Z,140
2018-09-15T10:35:53.966Z,115
2018-09-15T10:36:55.449Z,180
2018-09-15T10:37:57.094Z,210
2018-09-15T10:38:58.509Z,175
2018-09-15T10:39:59.921Z,160
2018-09-15T10:41:01.678Z,150
2018-09-15T10:42:03.088Z,130
2018-09-15T10:43:04.488Z,115
2018-09-15T10:44:06.152Z,140
2018-09-15T10:45:07.551Z,150
2018-09-15T10:46:09.236Z,215
2018-09-15T10:47:10.639Z,215
2018-09-15T10:48:12.320Z,230
2018-09-15T10:49:13.729Z,205
2018-09-15T10:50:15.403Z,175
2018-09-15T10:51:16.806Z,150
2018-09-15T10:52:18.556Z,130
2018-09-15T10:53:19.922Z,110
2018-09-15T10:54:21.569Z,100
2018-09-15T10:55:22.974Z,90
2018-09-15T10:56:24.652Z,90
2018-09-15T10:57:26.059Z,85
2018-09-15T10:58:27.740Z,75
2018-09-15T10:59:29.148Z,65
2018-09-15T11:00:30.921Z,60
2018-09-15T11:01:32.252Z,65
2018-09-15T11:02:34.240Z,75
2018-09-15T11:03:35.650Z,80
2018-09-15T11:04:37.051Z,85
2018-09-15T11:05:38.656Z,80
2018-09-15T11:06:40.125Z,85
2018-09-15T11:07:41.554Z,105
2018-09-15T11:08:43.182Z,105
2018-09-15T11:09:44.574Z,70
2018-09-15T11:10:45.986Z,40
2018-09-15T11:11:47.496Z,35
2018-09-15T11:12:48.903Z,45
2018-09-15T11:13:50.316Z,95
2018-09-15T11:14:52.018Z,135
2018-09-15T11:15:53.424Z,175
2018-09-15T11:16:54.836Z,165
2018-09-15T11:17:56.605Z,145
2018-09-15T11:18:58.011Z,115
2018-09-15T11:19:59.627Z,110
2018-09-15T11:21:01.041Z,125
2018-09-15T11:22:02.762Z,120
2018-09-15T11:23:04.173Z,115
2018-09-15T11:24:05.587Z,110
2018-09-15T11:25:07.315Z,120
2018-09-15T11:26:08.713Z,135
2018-09-15T11:27:10.119Z,130
2018-09-15T11:28:11.768Z,115
2018-09-15T11:29:13.183Z,115
2018-09-15T11:30:14.589Z,115
2018-09-15T11:31:16.303Z,115
2018-09-15T11:32:17.703Z,115
2018-09-15T11:33:19.112Z,115
2018-09-15T11:34:20.616Z,115
2018-09-15T11:35:22.026Z,110
2018-09-15T11:36:23.702Z,115
2018-09-15T11:37:25.109Z,115
2018-09-15T11:38:26.521Z,115
2018-09-15T11:39:28.223Z,115
2018-09-15T11:40:29.712Z,110
2018-09-15T11:41:31.116Z,110
2018-09-15T11:42:32.751Z,115
2018-09-15T11:43:34.220Z,120
2018-09-15T11:44:35.568Z,120
2018-09-15T11:45:37.073Z,120
2018-09-15T11:46:38.482Z,120
2018-09-15T11:47:39.890Z,130
2018-09-15T11:48:41.393Z,145
2018-09-15T11:49:42.801Z,175
2018-09-15T11:50:44.206Z,195
2018-09-15T11:51:47.017Z,190
2018-09-15T11:52:48.425Z,185
2018-09-15T11:53:49.877Z,165
2018-09-15T11:54:51.468Z,165
2018-09-15T11:55:52.878Z,165
2018-09-15T11:56:54.552Z,190
2018-09-15T11:57:55.968Z,200
2018-09-15T11:58:57.714Z,210
2018-09-15T11:59:59.193Z,210
2018-09-15T12:01:00.731Z,210
2018-09-15T12:02:02.212Z,200
2018-09-15T12:03:03.812Z,205
2018-09-15T12:04:05.218Z,195
2018-09-15T12:05:06.905Z,190
2018-09-15T12:06:08.362Z,205
2018-09-15T12:07:10.034Z,215
2018-09-15T12:08:11.769Z,230
2018-09-15T12:09:13.276Z,240
2018-09-15T12:10:14.675Z,225
2018-09-15T12:11:16.360Z,220
2018-09-15T12:12:17.803Z,215
2018-09-15T12:13:19.446Z,205
2018-09-15T12:14:20.940Z,205
2018-09-15T12:15:22.253Z,200
2018-09-15T12:16:23.766Z,190
2018-09-15T12:17:25.180Z,185
2018-09-15T12:18:26.586Z,180
2018-09-15T12:19:28.092Z,175
2018-09-15T12:20:29.495Z,145
2018-09-15T12:21:31.253Z,115
2018-09-15T12:22:32.651Z,95
2018-09-15T12:23:34.255Z,80
2018-09-15T12:24:35.668Z,70
2018-09-15T12:25:37.073Z,75
2018-09-15T12:26:38.579Z,85
2018-09-15T12:27:40.031Z,95
2018-09-15T12:28:41.386Z,90
2018-09-15T12:29:42.899Z,75
2018-09-15T12:30:44.309Z,55
2018-09-15T12:31:45.713Z,40
2018-09-15T12:32:47.222Z,30
2018-09-15T12:33:48.630Z,25
2018-09-15T12:34:50.035Z,25
2018-09-15T12:35:51.544Z,30
2018-09-15T12:36:52.953Z,40
2018-09-15T12:37:54.631Z,45
2018-09-15T12:38:56.030Z,50
2018-09-15T12:39:57.713Z,60
2018-09-15T12:40:59.117Z,70
2018-09-15T12:42:00.536Z,85
2018-09-15T12:43:02.038Z,100
2018-09-15T12:44:03.445Z,105
2018-09-15T12:45:04.909Z,110
2018-09-15T12:46:06.362Z,110
2018-09-15T12:47:07.798Z,115
2018-09-15T12:48:09.221Z,115
2018-09-15T12:49:10.884Z,110
2018-09-15T12:50:12.292Z,100
2018-09-15T12:51:13.701Z,100
2018-09-15T12:52:15.244Z,105
2018-09-15T12:53:16.615Z,115
2018-09-15T12:54:18.148Z,120
2018-09-15T12:55:19.733Z,120
2018-09-15T12:56:21.156Z,120
2018-09-15T12:57:22.562Z,110
2018-09-15T12:58:24.259Z,110
2018-09-15T12:59:41.156Z,110
2018-09-15T13:00:45.254Z,95
2018-09-15T13:01:47.184Z,90
2018-09-15T13:03:08.817Z,85
2018-09-15T13:04:10.228Z,85
2018-09-15T13:05:11.814Z,90
2018-09-15T13:06:13.217Z,90
2018-09-15T13:07:14.625Z,85
2018-09-15T13:08:16.134Z,75
2018-09-15T13:09:17.540Z,70
2018-09-15T13:10:18.987Z,65
2018-09-15T13:11:20.784Z,65
2018-09-15T13:12:22.190Z,65
2018-09-15T13:13:23.591Z,70
2018-09-15T13:14:25.004Z,75
2018-09-15T13:15:26.472Z,85
2018-09-15T13:16:28.065Z,90
2018-09-15T13:17:29.473Z,95
2018-09-15T13:18:31.154Z,105
2018-09-15T13:19:32.559Z,115
2018-09-15T13:20:34.240Z,130
2018-09-15T13:21:35.686Z,140
2018-09-15T13:22:37.335Z,135
2018-09-15T13:23:38.777Z,130
2018-09-15T13:24:40.428Z,120
2018-09-15T13:25:41.874Z,115
2018-09-15T13:26:43.290Z,110
2018-09-15T13:27:44.938Z,120
2018-09-15T13:28:46.348Z,130
2018-09-15T13:29:47.965Z,135
2018-09-15T13:30:49.463Z,135
2018-09-15T13:31:50.823Z,140
2018-09-15T13:32:52.345Z,135
2018-09-15T13:33:53.751Z,140
2018-09-15T13:34:55.430Z,145
2018-09-15T13:35:56.842Z,150
2018-09-15T13:36:58.515Z,150
2018-09-15T13:38:00.015Z,145
2018-09-15T13:39:02.013Z,145
2018-09-15T13:40:03.423Z,155
2018-09-15T13:41:05.095Z,160
2018-09-15T13:42:06.503Z,160
2018-09-15T13:43:08.183Z,155
2018-09-15T13:44:09.590Z,155
2018-09-15T13:45:11.271Z,150
2018-09-15T13:46:12.682Z,145
2018-09-15T13:47:14.357Z,150
2018-09-15T13:48:15.802Z,145
2018-09-15T13:49:17.481Z,135
2018-09-15T13:50:18.902Z,130
2018-09-15T13:51:20.303Z,135
2018-09-15T13:52:21.966Z,145
2018-09-15T13:53:23.451Z,145
2018-09-15T13:54:24.781Z,140
2018-09-15T13:55:26.293Z,135
2018-09-15T13:56:27.689Z,135
2018-09-15T13:57:29.373Z,130
2018-09-15T13:58:30.780Z,130
2018-09-15T13:59:32.466Z,125
2018-09-15T14:00:33.879Z,125
2018-09-15T14:01:35.542Z,120
2018-09-15T14:02:36.964Z,120
2018-09-15T14:03:38.629Z,115
2018-09-15T14:04:40.058Z,105
2018-09-15T14:05:41.711Z,95
2018-09-15T14:06:43.117Z,90
2018-09-15T14:07:44.793Z,90
2018-09-15T14:08:46.208Z,95
2018-09-15T14:09:47.881Z,90
2018-09-15T14:10:49.363Z,90
2018-09-15T14:11:51.175Z,90
2018-09-15T14:12:52.595Z,90
2018-09-15T14:13:54.260Z,95
2018-09-15T14:14:55.669Z,105
2018-09-15T14:15:57.345Z,110
2018-09-15T14:16:58.797Z,115
2018-09-15T14:18:00.432Z,115
2018-09-15T14:19:01.842Z,115
2018-09-15T14:20:03.520Z,115
2018-09-15T14:21:04.929Z,120
2018-09-15T14:22:06.345Z,115
2018-09-15T14:23:07.847Z,120
2018-09-15T14:24:09.245Z,115
2018-09-15T14:25:10.656Z,115
2018-09-15T14:26:12.163Z,115
2018-09-15T14:27:13.575Z,125
2018-09-15T14:28:15.025Z,120
2018-09-15T14:29:16.869Z,120
2018-09-15T14:30:18.274Z,120
2018-09-15T14:31:19.684Z,120
2018-09-15T14:32:21.216Z,115
2018-09-15T14:33:22.632Z,110
2018-09-15T14:34:24.043Z,105
2018-09-15T14:35:25.540Z,105
2018-09-15T14:36:26.998Z,110
2018-09-15T14:37:28.622Z,110
2018-09-15T14:38:30.032Z,100